sensor_id;sensor_type;location;lat;lon;timestamp;P1;durP1;ratioP1;P2;durP2;ratioP2
9892;SDS011;4985;49.092;8.542;2023-07-31T00:02:16;2.78;;;1.77;;
9892;SDS011;4985;49.092;8.542;2023-07-31T00:04:43;4.40;;;1.67;;
9892;SDS011;4985;49.092;8.542;2023-07-31T00:07:11;4.57;;;1.90;;
9892;SDS011;4985;49.092;8.542;2023-07-31T00:09:38;3.28;;;1.60;;
9892;SDS011;4985;49.092;8.542;2023-07-31T00:12:04;3.37;;;1.67;;
9892;SDS011;4985;49.092;8.542;2023-07-31T00:14:31;2.05;;;1.25;;
9892;SDS011;4985;49.092;8.542;2023-07-31T00:16:58;2.85;;;1.45;;
9892;SDS011;4985;49.092;8.542;2023-07-31T00:19:25;2.12;;;1.70;;
9892;SDS011;4985;49.092;8.542;2023-07-31T00:21:51;2.33;;;1.23;;
9892;SDS011;4985;49.092;8.542;2023-07-31T00:24:19;2.67;;;1.20;;
9892;SDS011;4985;49.092;8.542;2023-07-31T00:26:45;3.97;;;1.50;;
9892;SDS011;4985;49.092;8.542;2023-07-31T00:29:12;3.17;;;1.50;;
9892;SDS011;4985;49.092;8.542;2023-07-31T00:31:39;1.98;;;1.20;;
9892;SDS011;4985;49.092;8.542;2023-07-31T00:34:05;4.32;;;1.70;;
9892;SDS011;4985;49.092;8.542;2023-07-31T00:36:32;2.65;;;1.55;;
9892;SDS011;4985;49.092;8.542;2023-07-31T00:38:58;2.37;;;1.33;;
9892;SDS011;4985;49.092;8.542;2023-07-31T00:41:26;3.10;;;1.37;;
9892;SDS011;4985;49.092;8.542;2023-07-31T00:43:53;2.37;;;1.48;;
9892;SDS011;4985;49.092;8.542;2023-07-31T00:46:19;2.33;;;1.40;;
9892;SDS011;4985;49.092;8.542;2023-07-31T00:48:46;2.03;;;1.23;;
9892;SDS011;4985;49.092;8.542;2023-07-31T00:51:13;2.05;;;1.45;;
9892;SDS011;4985;49.092;8.542;2023-07-31T00:53:40;2.75;;;1.27;;
9892;SDS011;4985;49.092;8.542;2023-07-31T00:56:07;3.87;;;1.40;;
9892;SDS011;4985;49.092;8.542;2023-07-31T00:58:35;3.85;;;1.48;;
9892;SDS011;4985;49.092;8.542;2023-07-31T01:01:02;4.05;;;1.50;;
9892;SDS011;4985;49.092;8.542;2023-07-31T01:03:29;2.75;;;1.58;;
9892;SDS011;4985;49.092;8.542;2023-07-31T01:05:58;1.60;;;1.20;;
9892;SDS011;4985;49.092;8.542;2023-07-31T01:08:37;2.85;;;1.40;;
9892;SDS011;4985;49.092;8.542;2023-07-31T01:11:10;5.87;;;1.37;;
9892;SDS011;4985;49.092;8.542;2023-07-31T01:13:43;2.72;;;1.42;;
9892;SDS011;4985;49.092;8.542;2023-07-31T01:16:10;5.12;;;1.55;;
9892;SDS011;4985;49.092;8.542;2023-07-31T01:18:37;2.97;;;2.00;;
9892;SDS011;4985;49.092;8.542;2023-07-31T01:21:06;4.10;;;1.50;;
9892;SDS011;4985;49.092;8.542;2023-07-31T01:24:00;2.20;;;1.30;;
9892;SDS011;4985;49.092;8.542;2023-07-31T01:26:47;3.95;;;1.45;;
9892;SDS011;4985;49.092;8.542;2023-07-31T01:29:20;3.95;;;1.15;;
9892;SDS011;4985;49.092;8.542;2023-07-31T01:31:51;4.40;;;1.45;;
9892;SDS011;4985;49.092;8.542;2023-07-31T01:34:21;1.83;;;1.20;;
9892;SDS011;4985;49.092;8.542;2023-07-31T01:36:48;1.95;;;1.52;;
9892;SDS011;4985;49.092;8.542;2023-07-31T01:39:15;3.37;;;1.60;;
9892;SDS011;4985;49.092;8.542;2023-07-31T01:41:42;3.05;;;1.62;;
9892;SDS011;4985;49.092;8.542;2023-07-31T01:44:09;2.67;;;1.33;;
9892;SDS011;4985;49.092;8.542;2023-07-31T01:46:36;2.25;;;1.50;;
9892;SDS011;4985;49.092;8.542;2023-07-31T01:49:03;1.85;;;1.40;;
9892;SDS011;4985;49.092;8.542;2023-07-31T01:51:30;2.12;;;1.33;;
9892;SDS011;4985;49.092;8.542;2023-07-31T01:53:59;2.78;;;1.40;;
9892;SDS011;4985;49.092;8.542;2023-07-31T01:56:25;2.35;;;1.33;;
9892;SDS011;4985;49.092;8.542;2023-07-31T01:58:52;6.87;;;1.33;;
9892;SDS011;4985;49.092;8.542;2023-07-31T02:01:20;2.03;;;1.20;;
9892;SDS011;4985;49.092;8.542;2023-07-31T02:03:47;3.87;;;1.50;;
9892;SDS011;4985;49.092;8.542;2023-07-31T02:06:13;1.73;;;1.20;;
9892;SDS011;4985;49.092;8.542;2023-07-31T02:08:40;1.92;;;1.20;;
9892;SDS011;4985;49.092;8.542;2023-07-31T02:11:06;2.92;;;1.45;;
9892;SDS011;4985;49.092;8.542;2023-07-31T02:13:33;2.90;;;1.55;;
9892;SDS011;4985;49.092;8.542;2023-07-31T02:15:59;2.28;;;1.50;;
9892;SDS011;4985;49.092;8.542;2023-07-31T02:18:27;3.00;;;1.40;;
9892;SDS011;4985;49.092;8.542;2023-07-31T02:20:54;1.98;;;1.25;;
9892;SDS011;4985;49.092;8.542;2023-07-31T02:23:21;2.58;;;1.65;;
9892;SDS011;4985;49.092;8.542;2023-07-31T02:25:47;1.98;;;1.20;;
9892;SDS011;4985;49.092;8.542;2023-07-31T02:28:14;2.53;;;1.87;;
9892;SDS011;4985;49.092;8.542;2023-07-31T02:30:43;4.30;;;1.45;;
9892;SDS011;4985;49.092;8.542;2023-07-31T02:33:10;3.60;;;1.58;;
9892;SDS011;4985;49.092;8.542;2023-07-31T02:35:38;5.05;;;1.70;;
9892;SDS011;4985;49.092;8.542;2023-07-31T02:38:05;1.37;;;1.15;;
9892;SDS011;4985;49.092;8.542;2023-07-31T02:40:31;2.87;;;1.45;;
9892;SDS011;4985;49.092;8.542;2023-07-31T02:42:58;3.33;;;1.48;;
9892;SDS011;4985;49.092;8.542;2023-07-31T02:45:24;3.33;;;1.30;;
9892;SDS011;4985;49.092;8.542;2023-07-31T02:47:51;3.22;;;1.30;;
9892;SDS011;4985;49.092;8.542;2023-07-31T02:50:17;4.05;;;1.30;;
9892;SDS011;4985;49.092;8.542;2023-07-31T02:52:45;3.08;;;1.48;;
9892;SDS011;4985;49.092;8.542;2023-07-31T02:55:12;3.53;;;1.50;;
9892;SDS011;4985;49.092;8.542;2023-07-31T02:57:39;2.37;;;1.42;;
9892;SDS011;4985;49.092;8.542;2023-07-31T03:00:06;3.62;;;1.62;;
9892;SDS011;4985;49.092;8.542;2023-07-31T03:02:33;1.45;;;1.17;;
9892;SDS011;4985;49.092;8.542;2023-07-31T03:04:59;2.00;;;1.08;;
9892;SDS011;4985;49.092;8.542;2023-07-31T03:07:26;1.92;;;1.37;;
9892;SDS011;4985;49.092;8.542;2023-07-31T03:09:54;2.58;;;1.30;;
9892;SDS011;4985;49.092;8.542;2023-07-31T03:12:21;4.43;;;1.48;;
9892;SDS011;4985;49.092;8.542;2023-07-31T03:14:48;1.75;;;1.25;;
9892;SDS011;4985;49.092;8.542;2023-07-31T03:17:15;4.07;;;1.67;;
9892;SDS011;4985;49.092;8.542;2023-07-31T03:19:41;3.60;;;1.60;;
9892;SDS011;4985;49.092;8.542;2023-07-31T03:22:08;2.33;;;1.27;;
9892;SDS011;4985;49.092;8.542;2023-07-31T03:24:34;2.67;;;1.80;;
9892;SDS011;4985;49.092;8.542;2023-07-31T03:27:03;2.25;;;1.10;;
9892;SDS011;4985;49.092;8.542;2023-07-31T03:29:30;3.53;;;1.50;;
9892;SDS011;4985;49.092;8.542;2023-07-31T03:31:56;2.70;;;1.40;;
9892;SDS011;4985;49.092;8.542;2023-07-31T03:34:23;2.62;;;1.70;;
9892;SDS011;4985;49.092;8.542;2023-07-31T03:36:49;3.20;;;1.20;;
9892;SDS011;4985;49.092;8.542;2023-07-31T03:39:16;2.00;;;1.15;;
9892;SDS011;4985;49.092;8.542;2023-07-31T03:41:42;2.85;;;1.33;;
9892;SDS011;4985;49.092;8.542;2023-07-31T03:44:10;2.45;;;1.30;;
9892;SDS011;4985;49.092;8.542;2023-07-31T03:46:37;2.67;;;1.50;;
9892;SDS011;4985;49.092;8.542;2023-07-31T03:49:03;3.50;;;1.30;;
9892;SDS011;4985;49.092;8.542;2023-07-31T03:51:30;2.75;;;1.58;;
9892;SDS011;4985;49.092;8.542;2023-07-31T03:53:56;3.42;;;1.48;;
9892;SDS011;4985;49.092;8.542;2023-07-31T03:56:23;1.77;;;1.30;;
9892;SDS011;4985;49.092;8.542;2023-07-31T03:58:49;2.67;;;1.48;;
9892;SDS011;4985;49.092;8.542;2023-07-31T04:01:17;2.30;;;1.50;;
9892;SDS011;4985;49.092;8.542;2023-07-31T04:03:44;2.12;;;1.67;;
9892;SDS011;4985;49.092;8.542;2023-07-31T04:06:11;5.12;;;1.52;;
9892;SDS011;4985;49.092;8.542;2023-07-31T04:08:37;2.37;;;1.50;;
9892;SDS011;4985;49.092;8.542;2023-07-31T04:11:04;3.10;;;1.30;;
9892;SDS011;4985;49.092;8.542;2023-07-31T04:13:30;2.30;;;1.15;;
9892;SDS011;4985;49.092;8.542;2023-07-31T04:15:57;3.03;;;1.40;;
9892;SDS011;4985;49.092;8.542;2023-07-31T04:18:25;1.80;;;1.30;;
9892;SDS011;4985;49.092;8.542;2023-07-31T04:20:52;2.83;;;1.65;;
9892;SDS011;4985;49.092;8.542;2023-07-31T04:23:19;4.22;;;1.50;;
9892;SDS011;4985;49.092;8.542;2023-07-31T04:25:46;2.37;;;1.15;;
9892;SDS011;4985;49.092;8.542;2023-07-31T04:28:12;2.58;;;1.80;;
9892;SDS011;4985;49.092;8.542;2023-07-31T04:30:39;3.28;;;1.87;;
9892;SDS011;4985;49.092;8.542;2023-07-31T04:33:05;2.10;;;1.80;;
9892;SDS011;4985;49.092;8.542;2023-07-31T04:35:33;2.00;;;1.27;;
9892;SDS011;4985;49.092;8.542;2023-07-31T04:38:00;2.72;;;1.60;;
9892;SDS011;4985;49.092;8.542;2023-07-31T04:40:26;3.10;;;1.58;;
9892;SDS011;4985;49.092;8.542;2023-07-31T04:42:53;3.75;;;1.50;;
9892;SDS011;4985;49.092;8.542;2023-07-31T04:45:19;4.82;;;1.77;;
9892;SDS011;4985;49.092;8.542;2023-07-31T04:47:46;3.75;;;1.55;;
9892;SDS011;4985;49.092;8.542;2023-07-31T04:50:13;2.30;;;1.40;;
9892;SDS011;4985;49.092;8.542;2023-07-31T04:52:40;3.28;;;1.55;;
9892;SDS011;4985;49.092;8.542;2023-07-31T04:55:07;1.95;;;1.30;;
9892;SDS011;4985;49.092;8.542;2023-07-31T04:57:34;2.85;;;1.48;;
9892;SDS011;4985;49.092;8.542;2023-07-31T05:00:01;2.30;;;1.55;;
9892;SDS011;4985;49.092;8.542;2023-07-31T05:02:28;2.35;;;1.35;;
9892;SDS011;4985;49.092;8.542;2023-07-31T05:04:54;3.17;;;1.33;;
9892;SDS011;4985;49.092;8.542;2023-07-31T05:07:21;3.45;;;1.48;;
9892;SDS011;4985;49.092;8.542;2023-07-31T05:09:49;2.50;;;1.70;;
9892;SDS011;4985;49.092;8.542;2023-07-31T05:12:15;1.55;;;1.33;;
9892;SDS011;4985;49.092;8.542;2023-07-31T05:14:42;4.97;;;1.67;;
9892;SDS011;4985;49.092;8.542;2023-07-31T05:17:08;3.08;;;1.60;;
9892;SDS011;4985;49.092;8.542;2023-07-31T05:19:35;3.40;;;1.75;;
9892;SDS011;4985;49.092;8.542;2023-07-31T05:22:02;2.33;;;1.45;;
9892;SDS011;4985;49.092;8.542;2023-07-31T05:24:28;2.83;;;1.80;;
9892;SDS011;4985;49.092;8.542;2023-07-31T05:26:57;2.45;;;1.40;;
9892;SDS011;4985;49.092;8.542;2023-07-31T05:29:23;3.95;;;1.73;;
9892;SDS011;4985;49.092;8.542;2023-07-31T05:31:50;2.50;;;1.48;;
9892;SDS011;4985;49.092;8.542;2023-07-31T05:34:16;3.28;;;1.65;;
9892;SDS011;4985;49.092;8.542;2023-07-31T05:36:43;2.47;;;1.70;;
9892;SDS011;4985;49.092;8.542;2023-07-31T05:39:09;2.62;;;1.70;;
9892;SDS011;4985;49.092;8.542;2023-07-31T05:41:36;2.40;;;1.30;;
9892;SDS011;4985;49.092;8.542;2023-07-31T05:44:04;3.80;;;1.70;;
9892;SDS011;4985;49.092;8.542;2023-07-31T05:46:31;1.33;;;1.23;;
9892;SDS011;4985;49.092;8.542;2023-07-31T05:48:57;2.33;;;1.48;;
9892;SDS011;4985;49.092;8.542;2023-07-31T05:51:25;2.15;;;1.52;;
9892;SDS011;4985;49.092;8.542;2023-07-31T05:53:52;3.30;;;1.70;;
9892;SDS011;4985;49.092;8.542;2023-07-31T05:56:19;2.83;;;1.60;;
9892;SDS011;4985;49.092;8.542;2023-07-31T05:58:45;2.92;;;1.40;;
9892;SDS011;4985;49.092;8.542;2023-07-31T06:01:15;4.70;;;1.52;;
9892;SDS011;4985;49.092;8.542;2023-07-31T06:03:42;4.60;;;1.85;;
9892;SDS011;4985;49.092;8.542;2023-07-31T06:06:08;2.60;;;1.65;;
9892;SDS011;4985;49.092;8.542;2023-07-31T06:08:35;3.65;;;1.70;;
9892;SDS011;4985;49.092;8.542;2023-07-31T06:11:01;2.35;;;1.45;;
9892;SDS011;4985;49.092;8.542;2023-07-31T06:13:28;2.55;;;1.67;;
9892;SDS011;4985;49.092;8.542;2023-07-31T06:15:55;3.25;;;1.60;;
9892;SDS011;4985;49.092;8.542;2023-07-31T06:18:23;4.50;;;1.70;;
9892;SDS011;4985;49.092;8.542;2023-07-31T06:20:49;2.03;;;1.37;;
9892;SDS011;4985;49.092;8.542;2023-07-31T06:23:18;2.20;;;1.45;;
9892;SDS011;4985;49.092;8.542;2023-07-31T06:25:45;3.10;;;1.65;;
9892;SDS011;4985;49.092;8.542;2023-07-31T06:28:12;2.53;;;1.52;;
9892;SDS011;4985;49.092;8.542;2023-07-31T06:30:38;3.35;;;1.80;;
9892;SDS011;4985;49.092;8.542;2023-07-31T06:33:05;2.97;;;1.60;;
9892;SDS011;4985;49.092;8.542;2023-07-31T06:35:33;2.92;;;1.50;;
9892;SDS011;4985;49.092;8.542;2023-07-31T06:37:59;5.57;;;1.62;;
9892;SDS011;4985;49.092;8.542;2023-07-31T06:40:26;1.80;;;1.48;;
9892;SDS011;4985;49.092;8.542;2023-07-31T06:42:53;3.22;;;1.62;;
9892;SDS011;4985;49.092;8.542;2023-07-31T06:45:19;2.78;;;1.60;;
9892;SDS011;4985;49.092;8.542;2023-07-31T06:47:47;2.60;;;1.50;;
9892;SDS011;4985;49.092;8.542;2023-07-31T06:50:13;1.67;;;1.45;;
9892;SDS011;4985;49.092;8.542;2023-07-31T06:52:41;2.83;;;1.55;;
9892;SDS011;4985;49.092;8.542;2023-07-31T06:55:16;4.00;;;1.87;;
9892;SDS011;4985;49.092;8.542;2023-07-31T06:57:43;2.28;;;1.67;;
9892;SDS011;4985;49.092;8.542;2023-07-31T07:00:10;3.08;;;1.58;;
9892;SDS011;4985;49.092;8.542;2023-07-31T07:02:37;4.07;;;1.90;;
9892;SDS011;4985;49.092;8.542;2023-07-31T07:05:04;2.12;;;1.20;;
9892;SDS011;4985;49.092;8.542;2023-07-31T07:07:32;1.95;;;1.58;;
9892;SDS011;4985;49.092;8.542;2023-07-31T07:10:00;3.75;;;1.67;;
9892;SDS011;4985;49.092;8.542;2023-07-31T07:12:29;2.53;;;1.67;;
9892;SDS011;4985;49.092;8.542;2023-07-31T07:14:56;3.20;;;2.05;;
9892;SDS011;4985;49.092;8.542;2023-07-31T07:17:23;4.43;;;2.35;;
9892;SDS011;4985;49.092;8.542;2023-07-31T07:19:49;3.60;;;1.80;;
9892;SDS011;4985;49.092;8.542;2023-07-31T07:22:16;2.67;;;1.70;;
9892;SDS011;4985;49.092;8.542;2023-07-31T07:24:42;4.95;;;1.87;;
9892;SDS011;4985;49.092;8.542;2023-07-31T07:27:10;4.50;;;2.22;;
9892;SDS011;4985;49.092;8.542;2023-07-31T07:29:37;4.20;;;1.83;;
9892;SDS011;4985;49.092;8.542;2023-07-31T07:32:05;7.60;;;2.20;;
9892;SDS011;4985;49.092;8.542;2023-07-31T07:34:31;3.58;;;1.90;;
9892;SDS011;4985;49.092;8.542;2023-07-31T07:36:58;2.42;;;1.83;;
9892;SDS011;4985;49.092;8.542;2023-07-31T07:39:25;4.85;;;1.85;;
9892;SDS011;4985;49.092;8.542;2023-07-31T07:41:51;2.67;;;1.42;;
9892;SDS011;4985;49.092;8.542;2023-07-31T07:44:20;4.32;;;2.35;;
9892;SDS011;4985;49.092;8.542;2023-07-31T07:46:47;2.92;;;1.98;;
9892;SDS011;4985;49.092;8.542;2023-07-31T07:49:13;3.90;;;1.80;;
9892;SDS011;4985;49.092;8.542;2023-07-31T07:51:40;2.10;;;1.50;;
9892;SDS011;4985;49.092;8.542;2023-07-31T07:54:06;4.75;;;1.80;;
9892;SDS011;4985;49.092;8.542;2023-07-31T07:56:33;2.83;;;1.60;;
9892;SDS011;4985;49.092;8.542;2023-07-31T07:59:01;3.45;;;2.03;;
9892;SDS011;4985;49.092;8.542;2023-07-31T08:01:29;2.65;;;1.55;;
9892;SDS011;4985;49.092;8.542;2023-07-31T08:03:55;3.12;;;2.03;;
9892;SDS011;4985;49.092;8.542;2023-07-31T08:06:22;4.35;;;2.03;;
9892;SDS011;4985;49.092;8.542;2023-07-31T08:08:49;2.15;;;1.50;;
9892;SDS011;4985;49.092;8.542;2023-07-31T08:11:15;2.45;;;1.75;;
9892;SDS011;4985;49.092;8.542;2023-07-31T08:13:42;3.72;;;2.17;;
9892;SDS011;4985;49.092;8.542;2023-07-31T08:16:09;2.40;;;1.50;;
9892;SDS011;4985;49.092;8.542;2023-07-31T08:18:37;1.98;;;1.60;;
9892;SDS011;4985;49.092;8.542;2023-07-31T08:21:05;3.53;;;1.85;;
9892;SDS011;4985;49.092;8.542;2023-07-31T08:23:32;5.35;;;2.37;;
9892;SDS011;4985;49.092;8.542;2023-07-31T08:25:58;4.28;;;2.10;;
9892;SDS011;4985;49.092;8.542;2023-07-31T08:28:25;5.43;;;2.12;;
9892;SDS011;4985;49.092;8.542;2023-07-31T08:30:52;3.72;;;1.85;;
9892;SDS011;4985;49.092;8.542;2023-07-31T08:33:18;4.65;;;2.10;;
9892;SDS011;4985;49.092;8.542;2023-07-31T08:35:46;3.95;;;1.77;;
9892;SDS011;4985;49.092;8.542;2023-07-31T08:38:13;4.50;;;2.12;;
9892;SDS011;4985;49.092;8.542;2023-07-31T08:40:40;3.12;;;1.60;;
9892;SDS011;4985;49.092;8.542;2023-07-31T08:43:07;4.55;;;2.22;;
9892;SDS011;4985;49.092;8.542;2023-07-31T08:45:35;3.95;;;2.00;;
9892;SDS011;4985;49.092;8.542;2023-07-31T08:48:01;4.15;;;1.87;;
9892;SDS011;4985;49.092;8.542;2023-07-31T08:50:28;4.32;;;2.00;;
9892;SDS011;4985;49.092;8.542;2023-07-31T08:52:56;4.53;;;1.95;;
9892;SDS011;4985;49.092;8.542;2023-07-31T08:55:23;5.65;;;2.20;;
9892;SDS011;4985;49.092;8.542;2023-07-31T08:57:50;4.95;;;2.12;;
9892;SDS011;4985;49.092;8.542;2023-07-31T09:00:18;2.70;;;1.90;;
9892;SDS011;4985;49.092;8.542;2023-07-31T09:02:49;4.85;;;2.22;;
9892;SDS011;4985;49.092;8.542;2023-07-31T09:05:21;3.37;;;2.35;;
9892;SDS011;4985;49.092;8.542;2023-07-31T09:07:49;3.80;;;2.05;;
9892;SDS011;4985;49.092;8.542;2023-07-31T09:10:18;3.92;;;1.92;;
9892;SDS011;4985;49.092;8.542;2023-07-31T09:12:45;3.50;;;1.90;;
9892;SDS011;4985;49.092;8.542;2023-07-31T09:15:12;2.50;;;1.42;;
9892;SDS011;4985;49.092;8.542;2023-07-31T09:17:40;3.75;;;2.17;;
9892;SDS011;4985;49.092;8.542;2023-07-31T09:20:12;3.45;;;1.87;;
9892;SDS011;4985;49.092;8.542;2023-07-31T09:22:40;3.85;;;1.90;;
9892;SDS011;4985;49.092;8.542;2023-07-31T09:25:14;4.22;;;2.45;;
9892;SDS011;4985;49.092;8.542;2023-07-31T09:27:46;4.60;;;2.08;;
9892;SDS011;4985;49.092;8.542;2023-07-31T09:30:14;3.92;;;2.10;;
9892;SDS011;4985;49.092;8.542;2023-07-31T09:32:42;4.97;;;2.60;;
9892;SDS011;4985;49.092;8.542;2023-07-31T09:35:19;5.90;;;3.00;;
9892;SDS011;4985;49.092;8.542;2023-07-31T09:37:50;3.15;;;1.55;;
9892;SDS011;4985;49.092;8.542;2023-07-31T09:40:27;4.53;;;2.22;;
9892;SDS011;4985;49.092;8.542;2023-07-31T09:43:00;3.53;;;1.80;;
9892;SDS011;4985;49.092;8.542;2023-07-31T09:45:28;0.80;;;0.80;;
9892;SDS011;4985;49.092;8.542;2023-07-31T09:47:55;3.60;;;2.00;;
9892;SDS011;4985;49.092;8.542;2023-07-31T09:50:23;3.25;;;1.90;;
9892;SDS011;4985;49.092;8.542;2023-07-31T09:52:51;4.05;;;1.70;;
9892;SDS011;4985;49.092;8.542;2023-07-31T09:55:18;3.80;;;2.10;;
9892;SDS011;4985;49.092;8.542;2023-07-31T09:57:46;3.72;;;2.40;;
9892;SDS011;4985;49.092;8.542;2023-07-31T10:00:15;4.57;;;2.67;;
9892;SDS011;4985;49.092;8.542;2023-07-31T10:02:44;4.43;;;2.33;;
9892;SDS011;4985;49.092;8.542;2023-07-31T10:05:12;5.00;;;2.70;;
9892;SDS011;4985;49.092;8.542;2023-07-31T10:07:40;2.87;;;1.65;;
9892;SDS011;4985;49.092;8.542;2023-07-31T10:10:09;5.47;;;2.47;;
9892;SDS011;4985;49.092;8.542;2023-07-31T10:12:36;4.03;;;2.30;;
9892;SDS011;4985;49.092;8.542;2023-07-31T10:15:04;4.10;;;2.45;;
9892;SDS011;4985;49.092;8.542;2023-07-31T10:17:33;2.75;;;2.30;;
9892;SDS011;4985;49.092;8.542;2023-07-31T10:20:02;3.08;;;2.22;;
9892;SDS011;4985;49.092;8.542;2023-07-31T10:22:30;4.22;;;2.30;;
9892;SDS011;4985;49.092;8.542;2023-07-31T10:24:58;4.05;;;2.15;;
9892;SDS011;4985;49.092;8.542;2023-07-31T10:27:25;4.37;;;2.12;;
9892;SDS011;4985;49.092;8.542;2023-07-31T10:29:52;5.25;;;2.55;;
9892;SDS011;4985;49.092;8.542;2023-07-31T10:32:22;2.90;;;2.10;;
9892;SDS011;4985;49.092;8.542;2023-07-31T10:34:51;6.93;;;2.33;;
9892;SDS011;4985;49.092;8.542;2023-07-31T10:37:24;5.07;;;1.98;;
9892;SDS011;4985;49.092;8.542;2023-07-31T10:39:58;3.08;;;2.20;;
9892;SDS011;4985;49.092;8.542;2023-07-31T10:42:30;3.20;;;1.83;;
9892;SDS011;4985;49.092;8.542;2023-07-31T10:44:59;4.68;;;2.12;;
9892;SDS011;4985;49.092;8.542;2023-07-31T10:47:27;2.22;;;1.85;;
9892;SDS011;4985;49.092;8.542;2023-07-31T10:52:43;2.80;;;1.40;;
9892;SDS011;4985;49.092;8.542;2023-07-31T10:55:14;4.10;;;1.75;;
9892;SDS011;4985;49.092;8.542;2023-07-31T10:57:51;7.32;;;2.45;;
9892;SDS011;4985;49.092;8.542;2023-07-31T11:00:19;2.95;;;2.37;;
9892;SDS011;4985;49.092;8.542;2023-07-31T11:03:03;3.37;;;2.08;;
9892;SDS011;4985;49.092;8.542;2023-07-31T11:05:46;2.62;;;2.00;;
9892;SDS011;4985;49.092;8.542;2023-07-31T11:08:15;4.25;;;2.10;;
9892;SDS011;4985;49.092;8.542;2023-07-31T11:10:43;3.72;;;2.05;;
9892;SDS011;4985;49.092;8.542;2023-07-31T11:13:09;2.87;;;1.98;;
9892;SDS011;4985;49.092;8.542;2023-07-31T11:15:36;4.50;;;2.47;;
9892;SDS011;4985;49.092;8.542;2023-07-31T11:18:03;4.00;;;2.37;;
9892;SDS011;4985;49.092;8.542;2023-07-31T11:20:30;4.90;;;2.62;;
9892;SDS011;4985;49.092;8.542;2023-07-31T11:23:00;5.25;;;2.47;;
9892;SDS011;4985;49.092;8.542;2023-07-31T11:25:28;3.95;;;2.35;;
9892;SDS011;4985;49.092;8.542;2023-07-31T11:27:56;4.37;;;2.50;;
9892;SDS011;4985;49.092;8.542;2023-07-31T11:30:22;3.90;;;1.77;;
9892;SDS011;4985;49.092;8.542;2023-07-31T11:32:49;3.70;;;2.22;;
9892;SDS011;4985;49.092;8.542;2023-07-31T11:35:16;3.05;;;1.83;;
9892;SDS011;4985;49.092;8.542;2023-07-31T11:37:43;4.55;;;2.58;;
9892;SDS011;4985;49.092;8.542;2023-07-31T11:40:12;2.60;;;1.80;;
9892;SDS011;4985;49.092;8.542;2023-07-31T11:42:38;2.78;;;2.00;;
9892;SDS011;4985;49.092;8.542;2023-07-31T11:45:05;7.37;;;2.67;;
9892;SDS011;4985;49.092;8.542;2023-07-31T11:47:33;14.87;;;2.17;;
9892;SDS011;4985;49.092;8.542;2023-07-31T11:50:01;4.35;;;1.87;;
9892;SDS011;4985;49.092;8.542;2023-07-31T11:52:28;4.80;;;2.33;;
9892;SDS011;4985;49.092;8.542;2023-07-31T11:54:58;4.22;;;2.33;;
9892;SDS011;4985;49.092;8.542;2023-07-31T11:57:26;2.67;;;1.80;;
9892;SDS011;4985;49.092;8.542;2023-07-31T11:59:54;3.35;;;2.22;;
9892;SDS011;4985;49.092;8.542;2023-07-31T12:02:22;3.30;;;2.50;;
9892;SDS011;4985;49.092;8.542;2023-07-31T12:04:49;5.40;;;2.10;;
9892;SDS011;4985;49.092;8.542;2023-07-31T12:07:16;4.15;;;2.28;;
9892;SDS011;4985;49.092;8.542;2023-07-31T12:09:50;4.93;;;2.37;;
9892;SDS011;4985;49.092;8.542;2023-07-31T12:12:19;4.22;;;2.35;;
9892;SDS011;4985;49.092;8.542;2023-07-31T12:14:47;5.03;;;2.25;;
9892;SDS011;4985;49.092;8.542;2023-07-31T12:17:18;3.72;;;2.30;;
9892;SDS011;4985;49.092;8.542;2023-07-31T12:19:45;3.95;;;2.22;;
9892;SDS011;4985;49.092;8.542;2023-07-31T12:22:15;3.75;;;1.98;;
9892;SDS011;4985;49.092;8.542;2023-07-31T12:24:42;1.85;;;1.70;;
9892;SDS011;4985;49.092;8.542;2023-07-31T12:27:10;3.70;;;1.92;;
9892;SDS011;4985;49.092;8.542;2023-07-31T12:29:38;3.83;;;2.17;;
9892;SDS011;4985;49.092;8.542;2023-07-31T12:32:19;3.42;;;1.42;;
9892;SDS011;4985;49.092;8.542;2023-07-31T12:34:46;4.85;;;2.12;;
9892;SDS011;4985;49.092;8.542;2023-07-31T12:37:12;4.45;;;2.15;;
9892;SDS011;4985;49.092;8.542;2023-07-31T12:39:39;4.15;;;2.30;;
9892;SDS011;4985;49.092;8.542;2023-07-31T12:42:06;5.40;;;2.37;;
9892;SDS011;4985;49.092;8.542;2023-07-31T12:44:32;5.55;;;2.65;;
9892;SDS011;4985;49.092;8.542;2023-07-31T12:46:59;3.05;;;2.15;;
9892;SDS011;4985;49.092;8.542;2023-07-31T12:49:27;5.78;;;2.50;;
9892;SDS011;4985;49.092;8.542;2023-07-31T12:51:53;3.72;;;2.35;;
9892;SDS011;4985;49.092;8.542;2023-07-31T12:54:20;4.82;;;2.33;;
9892;SDS011;4985;49.092;8.542;2023-07-31T12:56:46;2.47;;;1.90;;
9892;SDS011;4985;49.092;8.542;2023-07-31T12:59:13;4.40;;;2.47;;
9892;SDS011;4985;49.092;8.542;2023-07-31T13:01:40;5.35;;;2.60;;
9892;SDS011;4985;49.092;8.542;2023-07-31T13:04:07;5.10;;;2.05;;
9892;SDS011;4985;49.092;8.542;2023-07-31T13:06:35;3.85;;;2.28;;
9892;SDS011;4985;49.092;8.542;2023-07-31T13:09:01;3.72;;;1.90;;
9892;SDS011;4985;49.092;8.542;2023-07-31T13:11:29;3.10;;;2.28;;
9892;SDS011;4985;49.092;8.542;2023-07-31T13:13:56;4.03;;;2.20;;
9892;SDS011;4985;49.092;8.542;2023-07-31T13:16:22;4.05;;;2.10;;
9892;SDS011;4985;49.092;8.542;2023-07-31T13:18:49;5.75;;;2.45;;
9892;SDS011;4985;49.092;8.542;2023-07-31T13:21:16;5.15;;;2.65;;
9892;SDS011;4985;49.092;8.542;2023-07-31T13:23:44;3.72;;;1.83;;
9892;SDS011;4985;49.092;8.542;2023-07-31T13:26:11;5.47;;;2.60;;
9892;SDS011;4985;49.092;8.542;2023-07-31T13:28:38;5.22;;;2.50;;
9892;SDS011;4985;49.092;8.542;2023-07-31T13:31:04;4.40;;;2.03;;
9892;SDS011;4985;49.092;8.542;2023-07-31T13:33:31;2.70;;;2.03;;
9892;SDS011;4985;49.092;8.542;2023-07-31T13:35:57;5.30;;;2.70;;
9892;SDS011;4985;49.092;8.542;2023-07-31T13:38:24;4.00;;;2.30;;
9892;SDS011;4985;49.092;8.542;2023-07-31T13:40:52;4.15;;;2.30;;
9892;SDS011;4985;49.092;8.542;2023-07-31T13:43:18;2.30;;;1.85;;
9892;SDS011;4985;49.092;8.542;2023-07-31T13:45:45;3.47;;;1.80;;
9892;SDS011;4985;49.092;8.542;2023-07-31T13:48:11;3.72;;;2.03;;
9892;SDS011;4985;49.092;8.542;2023-07-31T13:50:38;3.97;;;2.03;;
9892;SDS011;4985;49.092;8.542;2023-07-31T13:53:04;4.50;;;1.92;;
9892;SDS011;4985;49.092;8.542;2023-07-31T13:55:31;3.53;;;1.70;;
9892;SDS011;4985;49.092;8.542;2023-07-31T13:57:59;2.58;;;1.87;;
9892;SDS011;4985;49.092;8.542;2023-07-31T14:00:25;3.65;;;1.90;;
9892;SDS011;4985;49.092;8.542;2023-07-31T14:02:53;4.10;;;2.53;;
9892;SDS011;4985;49.092;8.542;2023-07-31T14:05:20;3.72;;;1.67;;
9892;SDS011;4985;49.092;8.542;2023-07-31T14:07:47;5.00;;;2.30;;
9892;SDS011;4985;49.092;8.542;2023-07-31T14:10:13;3.90;;;2.10;;
9892;SDS011;4985;49.092;8.542;2023-07-31T14:12:40;6.78;;;2.25;;
9892;SDS011;4985;49.092;8.542;2023-07-31T14:15:08;4.75;;;2.35;;
9892;SDS011;4985;49.092;8.542;2023-07-31T14:17:35;2.83;;;1.83;;
9892;SDS011;4985;49.092;8.542;2023-07-31T14:20:02;4.55;;;2.37;;
9892;SDS011;4985;49.092;8.542;2023-07-31T14:22:29;2.90;;;1.77;;
9892;SDS011;4985;49.092;8.542;2023-07-31T14:24:58;4.57;;;1.85;;
9892;SDS011;4985;49.092;8.542;2023-07-31T14:27:25;3.03;;;1.83;;
9892;SDS011;4985;49.092;8.542;2023-07-31T14:29:51;2.28;;;1.80;;
9892;SDS011;4985;49.092;8.542;2023-07-31T14:32:20;3.05;;;2.03;;
9892;SDS011;4985;49.092;8.542;2023-07-31T14:34:48;3.17;;;2.20;;
9892;SDS011;4985;49.092;8.542;2023-07-31T14:37:14;3.60;;;1.95;;
9892;SDS011;4985;49.092;8.542;2023-07-31T14:39:41;3.50;;;1.87;;
9892;SDS011;4985;49.092;8.542;2023-07-31T14:42:08;2.97;;;1.90;;
9892;SDS011;4985;49.092;8.542;2023-07-31T14:44:35;4.65;;;3.28;;
9892;SDS011;4985;49.092;8.542;2023-07-31T14:47:01;6.47;;;2.53;;
9892;SDS011;4985;49.092;8.542;2023-07-31T14:49:29;4.78;;;2.30;;
9892;SDS011;4985;49.092;8.542;2023-07-31T14:51:56;4.53;;;2.10;;
9892;SDS011;4985;49.092;8.542;2023-07-31T14:54:22;4.65;;;2.40;;
9892;SDS011;4985;49.092;8.542;2023-07-31T14:56:49;4.37;;;2.42;;
9892;SDS011;4985;49.092;8.542;2023-07-31T14:59:15;4.65;;;2.00;;
9892;SDS011;4985;49.092;8.542;2023-07-31T15:01:42;4.15;;;2.10;;
9892;SDS011;4985;49.092;8.542;2023-07-31T15:04:08;5.80;;;2.35;;
9892;SDS011;4985;49.092;8.542;2023-07-31T15:06:36;6.25;;;2.30;;
9892;SDS011;4985;49.092;8.542;2023-07-31T15:09:03;3.25;;;2.08;;
9892;SDS011;4985;49.092;8.542;2023-07-31T15:11:29;3.53;;;2.10;;
9892;SDS011;4985;49.092;8.542;2023-07-31T15:13:56;4.78;;;1.85;;
9892;SDS011;4985;49.092;8.542;2023-07-31T15:16:23;2.65;;;2.20;;
9892;SDS011;4985;49.092;8.542;2023-07-31T15:18:49;3.75;;;2.20;;
9892;SDS011;4985;49.092;8.542;2023-07-31T15:21:16;3.28;;;2.10;;